createdAt,value
2017-10-22T00:01:46.738Z,87.30
2017-10-22T00:04:14.992Z,87.50
2017-10-22T00:06:43.370Z,87.50
2017-10-22T00:09:12.387Z,88.40
2017-10-22T00:11:41.409Z,87.70
2017-10-22T00:14:09.689Z,87.70
2017-10-22T00:16:37.951Z,87.80
2017-10-22T00:19:07.028Z,87.50
2017-10-22T00:21:36.071Z,87.50
2017-10-22T00:24:04.350Z,87.40
2017-10-22T00:26:32.580Z,88.00
2017-10-22T00:29:01.588Z,86.80
2017-10-22T00:31:30.596Z,86.90
2017-10-22T00:33:58.845Z,86.90
2017-10-22T00:36:27.111Z,87.50
2017-10-22T00:38:56.128Z,86.90
2017-10-22T00:41:24.396Z,86.90
2017-10-22T00:43:52.671Z,86.90
2017-10-22T00:46:21.680Z,86.90
2017-10-22T00:48:49.978Z,86.90
2017-10-22T00:51:18.232Z,86.90
2017-10-22T00:53:46.476Z,87.10
2017-10-22T00:56:16.095Z,87.40
2017-10-22T00:58:45.107Z,86.80
2017-10-22T01:01:13.380Z,86.70
2017-10-22T01:03:41.639Z,86.80
2017-10-22T01:06:11.563Z,86.90
2017-10-22T01:08:40.571Z,86.60
2017-10-22T01:11:09.735Z,86.60
2017-10-22T01:13:38.018Z,86.60
2017-10-22T01:16:06.308Z,86.70
2017-10-22T01:18:34.589Z,86.90
2017-10-22T01:21:03.608Z,86.90
2017-10-22T01:23:31.850Z,86.40
2017-10-22T01:26:00.918Z,86.40
2017-10-22T01:28:29.200Z,86.30
2017-10-22T01:30:57.436Z,86.90
2017-10-22T01:33:25.736Z,86.20
2017-10-22T01:35:53.987Z,86.30
2017-10-22T01:38:22.242Z,86.40
2017-10-22T01:40:50.505Z,86.60
2017-10-22T01:43:19.540Z,86.90
2017-10-22T01:45:47.783Z,86.80
2017-10-22T01:48:16.075Z,86.80
2017-10-22T01:50:44.379Z,86.70
2017-10-22T01:53:12.631Z,86.80
2017-10-22T01:55:40.887Z,86.90
2017-10-22T01:58:09.170Z,87.00
2017-10-22T02:00:37.460Z,86.80
2017-10-22T02:03:06.368Z,87.00
2017-10-22T02:05:34.615Z,86.70
2017-10-22T02:08:03.778Z,87.00
2017-10-22T02:10:32.076Z,87.00
2017-10-22T02:13:00.367Z,87.30
2017-10-22T02:15:28.707Z,87.20
2017-10-22T02:17:56.955Z,87.00
2017-10-22T02:20:25.221Z,87.00
2017-10-22T02:22:54.237Z,87.00
2017-10-22T02:25:22.506Z,87.00
2017-10-22T02:27:50.779Z,87.00
2017-10-22T02:30:20.475Z,87.30
2017-10-22T02:32:48.703Z,87.30
2017-10-22T02:35:16.991Z,86.80
2017-10-22T02:37:45.250Z,87.00
2017-10-22T02:40:13.514Z,86.60
2017-10-22T02:42:41.792Z,86.70
2017-10-22T02:45:10.029Z,86.30
2017-10-22T02:47:39.072Z,86.60
2017-10-22T02:50:07.344Z,86.50
2017-10-22T02:52:35.577Z,86.60
2017-10-22T02:55:04.618Z,86.30
2017-10-22T02:57:32.898Z,86.30
2017-10-22T03:00:01.156Z,86.30
2017-10-22T03:02:29.439Z,86.20
2017-10-22T03:04:57.682Z,85.90
2017-10-22T03:07:26.720Z,85.60
2017-10-22T03:09:55.812Z,85.80
2017-10-22T03:12:24.050Z,85.80
2017-10-22T03:14:53.075Z,85.50
2017-10-22T03:17:21.361Z,85.40
2017-10-22T03:19:49.606Z,85.60
2017-10-22T03:22:18.635Z,85.20
2017-10-22T03:24:46.894Z,85.20
2017-10-22T03:27:15.926Z,85.40
2017-10-22T03:29:44.179Z,85.40
2017-10-22T03:32:12.525Z,85.40
2017-10-22T03:34:40.734Z,85.50
2017-10-22T03:37:08.982Z,85.60
2017-10-22T03:39:38.030Z,85.80
2017-10-22T03:42:06.301Z,85.80
2017-10-22T03:44:34.544Z,86.40
2017-10-22T03:47:03.535Z,85.80
2017-10-22T03:49:32.555Z,85.50
2017-10-22T03:52:00.782Z,85.50
2017-10-22T03:54:29.828Z,85.40
2017-10-22T03:56:58.042Z,85.30
2017-10-22T03:59:26.319Z,85.30
2017-10-22T04:01:54.558Z,84.70
2017-10-22T04:04:22.819Z,84.80
2017-10-22T04:06:51.074Z,85.10
2017-10-22T04:09:19.325Z,84.90
2017-10-22T04:11:47.574Z,84.80
2017-10-22T04:14:15.838Z,84.80
2017-10-22T04:16:44.071Z,84.30
2017-10-22T04:19:13.106Z,84.10
2017-10-22T04:21:41.372Z,84.10
2017-10-22T04:24:10.362Z,83.90
2017-10-22T04:26:38.623Z,83.90
2017-10-22T04:29:06.868Z,83.70
2017-10-22T04:31:35.130Z,83.40
2017-10-22T04:34:03.374Z,83.20
2017-10-22T04:36:32.379Z,82.70
2017-10-22T04:39:00.662Z,82.70
2017-10-22T04:41:28.948Z,82.60
2017-10-22T04:43:57.221Z,83.30
2017-10-22T04:46:25.473Z,83.40
2017-10-22T04:48:53.741Z,82.80
2017-10-22T04:51:21.966Z,82.40
2017-10-22T04:53:50.224Z,82.10
2017-10-22T04:56:18.467Z,81.90
2017-10-22T04:58:47.499Z,81.90
2017-10-22T05:01:15.748Z,81.90
2017-10-22T05:03:44.758Z,82.40
2017-10-22T05:06:13.032Z,83.10
2017-10-22T05:08:42.026Z,81.60
2017-10-22T05:11:10.311Z,81.60
2017-10-22T05:13:39.431Z,81.40
2017-10-22T05:16:07.700Z,81.60
2017-10-22T05:18:35.928Z,81.80
2017-10-22T05:21:05.548Z,82.00
2017-10-22T05:23:34.932Z,82.30
2017-10-22T05:26:03.156Z,82.30
2017-10-22T05:28:31.430Z,82.50
2017-10-22T05:30:59.668Z,83.00
2017-10-22T05:33:27.914Z,83.90
2017-10-22T05:35:56.167Z,83.80
2017-10-22T05:38:24.407Z,85.40
2017-10-22T05:40:53.444Z,87.30
2017-10-22T05:43:21.723Z,87.30
2017-10-22T05:45:49.993Z,87.50
2017-10-22T05:48:18.257Z,88.30
2017-10-22T05:50:47.251Z,88.40
2017-10-22T05:53:15.478Z,88.30
2017-10-22T05:55:43.750Z,89.50
2017-10-22T05:58:11.985Z,89.40
2017-10-22T06:00:40.254Z,90.00
2017-10-22T06:03:08.500Z,89.80
2017-10-22T06:05:36.781Z,90.30
2017-10-22T06:08:05.031Z,90.00
2017-10-22T06:10:33.297Z,90.40
2017-10-22T06:13:01.585Z,90.40
2017-10-22T06:15:29.815Z,90.40
2017-10-22T06:17:58.091Z,90.30
2017-10-22T06:20:27.099Z,90.30
2017-10-22T06:22:55.378Z,90.60
2017-10-22T06:25:23.627Z,90.50
2017-10-22T06:27:52.705Z,90.90
2017-10-22T06:30:20.955Z,90.90
2017-10-22T06:32:49.195Z,91.20
2017-10-22T06:35:17.447Z,91.80
2017-10-22T06:37:46.503Z,91.90
2017-10-22T06:40:14.761Z,91.90
2017-10-22T06:42:43.013Z,91.80
2017-10-22T06:45:12.006Z,92.10
2017-10-22T06:47:41.991Z,91.90
2017-10-22T06:50:10.251Z,91.90
2017-10-22T06:52:38.543Z,92.10
2017-10-22T06:55:06.781Z,92.20
2017-10-22T06:57:35.061Z,92.10
2017-10-22T07:00:03.351Z,92.20
2017-10-22T07:02:31.589Z,92.50
2017-10-22T07:04:59.857Z,92.30
2017-10-22T07:07:28.881Z,92.60
2017-10-22T07:09:57.152Z,92.60
2017-10-22T07:12:26.164Z,92.70
2017-10-22T07:14:54.443Z,92.70
2017-10-22T07:17:22.686Z,92.80
2017-10-22T07:19:51.671Z,92.90
2017-10-22T07:22:20.683Z,93.10
2017-10-22T07:24:49.248Z,93.20
2017-10-22T07:27:18.266Z,93.10
2017-10-22T07:29:47.263Z,92.80
2017-10-22T07:32:15.520Z,92.80
2017-10-22T07:34:44.607Z,92.80
2017-10-22T07:37:12.864Z,92.80
2017-10-22T07:39:41.108Z,93.20
2017-10-22T07:42:09.738Z,93.10
2017-10-22T07:44:37.990Z,93.20
2017-10-22T07:47:06.241Z,93.30
2017-10-22T07:49:36.904Z,93.00
2017-10-22T07:52:07.888Z,93.50
2017-10-22T07:54:39.645Z,93.70
2017-10-22T07:57:10.983Z,93.40
2017-10-22T07:59:42.706Z,93.30
2017-10-22T08:02:14.366Z,93.30
2017-10-22T08:04:44.664Z,93.20
2017-10-22T08:07:15.626Z,93.60
2017-10-22T08:09:45.829Z,93.60
2017-10-22T08:12:16.595Z,93.50
2017-10-22T08:14:46.844Z,93.50
2017-10-22T08:17:16.829Z,92.70
2017-10-22T08:19:46.671Z,92.60
2017-10-22T08:22:17.320Z,92.50
2017-10-22T08:24:48.142Z,92.50
2017-10-22T08:27:18.915Z,92.30
2017-10-22T08:29:49.386Z,92.60
2017-10-22T08:32:20.196Z,92.50
2017-10-22T08:34:51.490Z,92.80
2017-10-22T08:37:22.996Z,92.80
2017-10-22T08:39:53.495Z,92.80
2017-10-22T08:42:23.438Z,92.40
2017-10-22T08:44:55.745Z,92.60
2017-10-22T08:47:26.363Z,92.40
2017-10-22T08:49:57.572Z,91.90
2017-10-22T08:52:27.901Z,91.90
2017-10-22T08:54:58.802Z,91.90
2017-10-22T08:57:29.791Z,91.70
2017-10-22T09:00:00.765Z,91.60
2017-10-22T09:02:30.962Z,91.60
2017-10-22T09:05:01.466Z,91.70
2017-10-22T09:07:31.487Z,91.90
2017-10-22T09:10:02.393Z,91.50
2017-10-22T09:12:31.952Z,91.50
2017-10-22T09:15:02.391Z,91.30
2017-10-22T09:17:30.932Z,91.20
2017-10-22T09:19:59.973Z,91.10
2017-10-22T09:22:28.233Z,91.20
2017-10-22T09:24:56.560Z,91.20
2017-10-22T09:27:24.822Z,91.10
2017-10-22T09:29:53.180Z,91.40
2017-10-22T09:32:23.243Z,91.10
2017-10-22T09:34:52.311Z,90.60
2017-10-22T09:37:20.618Z,90.50
2017-10-22T09:39:48.933Z,91.20
2017-10-22T09:42:17.199Z,91.00
2017-10-22T09:44:46.249Z,90.40
2017-10-22T09:47:14.519Z,90.30
2017-10-22T09:49:42.803Z,90.50
2017-10-22T09:52:11.093Z,90.30
2017-10-22T09:54:39.370Z,89.40
2017-10-22T09:57:07.682Z,89.40
2017-10-22T09:59:36.801Z,90.40
2017-10-22T10:02:05.451Z,90.40
2017-10-22T10:04:34.508Z,90.20
2017-10-22T10:07:02.819Z,90.10
2017-10-22T10:09:31.143Z,90.30
2017-10-22T10:12:00.086Z,89.90
2017-10-22T10:14:28.360Z,90.00
2017-10-22T10:16:57.230Z,89.60
2017-10-22T10:19:26.459Z,88.60
2017-10-22T10:21:55.150Z,89.60
2017-10-22T10:24:24.196Z,89.70
2017-10-22T10:26:52.427Z,90.10
2017-10-22T10:29:21.224Z,89.60
2017-10-22T10:31:49.490Z,88.90
2017-10-22T10:34:18.279Z,88.80
2017-10-22T10:36:46.533Z,88.50
2017-10-22T10:39:15.646Z,89.60
2017-10-22T10:41:45.018Z,89.50
2017-10-22T10:44:13.324Z,89.50
2017-10-22T10:46:41.631Z,89.40
2017-10-22T10:49:10.128Z,90.00
2017-10-22T10:51:39.140Z,89.70
2017-10-22T10:54:09.059Z,90.20
2017-10-22T10:56:37.377Z,90.50
2017-10-22T10:59:05.651Z,90.50
2017-10-22T11:01:34.704Z,90.70
2017-10-22T11:04:04.202Z,90.70
2017-10-22T11:06:32.587Z,90.80
2017-10-22T11:09:00.836Z,91.10
2017-10-22T11:11:29.172Z,90.70
2017-10-22T11:13:58.341Z,91.10
2017-10-22T11:16:27.638Z,91.00
2017-10-22T11:18:56.883Z,90.80
2017-10-22T11:21:25.163Z,91.00
2017-10-22T11:23:53.411Z,91.40
2017-10-22T11:26:21.687Z,91.30
2017-10-22T11:28:49.972Z,91.30
2017-10-22T11:31:18.207Z,91.40
2017-10-22T11:33:46.466Z,91.30
2017-10-22T11:36:15.554Z,91.20
2017-10-22T11:38:43.823Z,91.20
2017-10-22T11:41:12.499Z,91.30
2017-10-22T11:43:41.167Z,91.60
2017-10-22T11:46:09.450Z,91.50
2017-10-22T11:48:38.491Z,91.60
2017-10-22T11:51:06.761Z,91.90
2017-10-22T11:53:35.783Z,91.30
2017-10-22T11:56:04.059Z,91.30
2017-10-22T11:58:32.410Z,91.70
2017-10-22T12:01:00.662Z,91.80
2017-10-22T12:03:29.242Z,92.10
2017-10-22T12:05:57.567Z,91.70
2017-10-22T12:08:26.644Z,92.20
2017-10-22T12:10:55.720Z,92.10
2017-10-22T12:13:24.019Z,92.00
2017-10-22T12:15:52.353Z,92.20
2017-10-22T12:18:20.666Z,92.70
2017-10-22T12:20:49.249Z,92.20
2017-10-22T12:23:17.510Z,92.90
2017-10-22T12:25:45.829Z,92.80
2017-10-22T12:28:15.599Z,93.00
2017-10-22T12:30:44.650Z,93.50
2017-10-22T12:33:13.510Z,93.20
2017-10-22T12:35:41.735Z,93.20
2017-10-22T12:38:10.002Z,93.10
2017-10-22T12:40:39.036Z,93.40
2017-10-22T12:43:07.441Z,93.30
2017-10-22T12:45:35.856Z,92.90
2017-10-22T12:48:05.028Z,93.00
2017-10-22T12:50:34.037Z,93.50
2017-10-22T12:53:02.361Z,93.00
2017-10-22T12:55:30.643Z,92.90
2017-10-22T12:57:59.863Z,93.40
2017-10-22T13:00:28.459Z,93.30
2017-10-22T13:02:57.033Z,93.20
2017-10-22T13:05:25.338Z,93.30
2017-10-22T13:07:54.373Z,93.50
2017-10-22T13:10:22.674Z,93.20
2017-10-22T13:12:50.961Z,93.50
2017-10-22T13:15:19.802Z,93.80
2017-10-22T13:17:48.085Z,93.60
2017-10-22T13:20:16.392Z,94.00
2017-10-22T13:22:44.678Z,94.10
2017-10-22T13:25:12.947Z,94.30
2017-10-22T13:27:41.261Z,93.80
2017-10-22T13:30:10.908Z,93.60
2017-10-22T13:32:39.152Z,93.60
2017-10-22T13:35:07.435Z,93.30
2017-10-22T13:37:35.743Z,93.70
2017-10-22T13:40:04.048Z,93.60
2017-10-22T13:42:32.435Z,93.50
2017-10-22T13:45:00.741Z,93.30
2017-10-22T13:47:29.028Z,93.30
2017-10-22T13:49:57.376Z,93.10
2017-10-22T13:52:25.765Z,93.10
2017-10-22T13:54:53.991Z,93.20
2017-10-22T13:57:22.262Z,92.60
2017-10-22T13:59:50.641Z,92.90
2017-10-22T14:02:19.775Z,92.60
2017-10-22T14:04:48.901Z,92.60
2017-10-22T14:07:18.370Z,93.00
2017-10-22T14:09:48.199Z,92.80
2017-10-22T14:12:16.498Z,92.80
2017-10-22T14:14:44.809Z,93.30
2017-10-22T14:17:13.077Z,93.40
2017-10-22T14:19:42.167Z,93.40
2017-10-22T14:22:11.173Z,93.20
2017-10-22T14:24:39.449Z,93.20
2017-10-22T14:27:07.728Z,93.30
2017-10-22T14:29:36.003Z,93.50
2017-10-22T14:32:05.027Z,93.70
2017-10-22T14:34:33.292Z,93.70
2017-10-22T14:37:01.663Z,93.30
2017-10-22T14:39:30.092Z,93.00
2017-10-22T14:41:58.332Z,93.40
2017-10-22T14:44:26.581Z,92.80
2017-10-22T14:46:54.881Z,92.90
2017-10-22T14:49:23.133Z,92.80
2017-10-22T14:51:52.197Z,93.30
2017-10-22T14:54:20.450Z,93.30
2017-10-22T14:56:48.707Z,92.70
2017-10-22T14:59:17.810Z,92.60
2017-10-22T15:01:47.026Z,92.50
2017-10-22T15:04:16.264Z,92.80
2017-10-22T15:06:45.332Z,93.20
2017-10-22T15:09:13.609Z,93.20
2017-10-22T15:11:41.959Z,93.00
2017-10-22T15:14:10.536Z,92.90
2017-10-22T15:16:38.812Z,92.60
2017-10-22T15:19:07.158Z,92.60
2017-10-22T15:21:35.427Z,92.70
2017-10-22T15:24:04.515Z,92.40
2017-10-22T15:26:32.882Z,92.40
2017-10-22T15:29:01.129Z,92.40
2017-10-22T15:31:29.462Z,93.20
2017-10-22T15:33:57.736Z,92.90
2017-10-22T15:36:26.838Z,92.50
2017-10-22T15:38:55.122Z,92.50
2017-10-22T15:41:23.457Z,92.50
2017-10-22T15:43:51.722Z,92.80
2017-10-22T15:46:19.997Z,92.80
2017-10-22T15:48:48.380Z,92.30
2017-10-22T15:51:18.211Z,92.80
2017-10-22T15:53:46.498Z,92.80
2017-10-22T15:56:15.589Z,93.00
2017-10-22T15:58:43.849Z,93.00
2017-10-22T16:01:12.183Z,92.70
2017-10-22T16:03:41.213Z,92.60
2017-10-22T16:06:09.540Z,92.60
2017-10-22T16:08:37.829Z,92.50
2017-10-22T16:11:06.195Z,92.00
2017-10-22T16:13:34.420Z,92.40
2017-10-22T16:16:02.712Z,92.50
2017-10-22T16:18:30.999Z,92.50
2017-10-22T16:20:59.366Z,92.70
2017-10-22T16:23:27.666Z,92.30
2017-10-22T16:25:55.915Z,92.40
2017-10-22T16:28:24.191Z,92.50
2017-10-22T16:30:52.527Z,92.60
2017-10-22T16:33:21.594Z,92.30
2017-10-22T16:35:49.898Z,92.30
2017-10-22T16:38:18.159Z,92.40
2017-10-22T16:40:47.215Z,92.30
2017-10-22T16:43:15.518Z,92.20
2017-10-22T16:45:44.432Z,92.10
2017-10-22T16:48:14.499Z,92.20
2017-10-22T16:50:42.777Z,92.10
2017-10-22T16:53:11.115Z,92.50
2017-10-22T16:55:39.395Z,92.20
2017-10-22T16:58:08.457Z,92.50
2017-10-22T17:00:36.727Z,92.20
2017-10-22T17:03:05.007Z,92.00
2017-10-22T17:05:33.308Z,92.70
2017-10-22T17:08:01.607Z,92.80
2017-10-22T17:10:29.905Z,92.80
2017-10-22T17:12:59.090Z,92.50
2017-10-22T17:15:28.148Z,92.60
2017-10-22T17:17:57.283Z,92.80
2017-10-22T17:20:25.565Z,92.80
2017-10-22T17:22:53.843Z,92.00
2017-10-22T17:25:22.886Z,93.10
2017-10-22T17:27:51.805Z,92.90
2017-10-22T17:30:20.889Z,92.90
2017-10-22T17:32:49.173Z,92.70
2017-10-22T17:35:17.473Z,92.20
2017-10-22T17:37:46.545Z,92.40
2017-10-22T17:40:14.914Z,92.30
2017-10-22T17:42:43.224Z,92.20
2017-10-22T17:45:12.306Z,92.10
2017-10-22T17:47:40.626Z,91.90
2017-10-22T17:50:08.939Z,91.80
2017-10-22T17:52:37.205Z,92.10
2017-10-22T17:55:06.290Z,92.10
2017-10-22T17:57:34.709Z,92.10
2017-10-22T18:00:02.995Z,91.80
2017-10-22T18:02:31.514Z,91.40
2017-10-22T18:04:59.839Z,91.20
2017-10-22T18:07:28.101Z,91.30
2017-10-22T18:09:57.474Z,90.90
2017-10-22T18:12:25.821Z,91.50
2017-10-22T18:14:54.270Z,91.50
2017-10-22T18:17:22.591Z,91.50
2017-10-22T18:19:50.956Z,91.60
2017-10-22T18:22:19.432Z,91.20
2017-10-22T18:24:47.673Z,91.30
2017-10-22T18:27:16.065Z,90.90
2017-10-22T18:29:46.081Z,91.40
2017-10-22T18:32:14.560Z,91.40
2017-10-22T18:34:44.805Z,91.50
2017-10-22T18:37:14.298Z,91.00
2017-10-22T18:39:43.469Z,91.20
2017-10-22T18:42:11.753Z,90.60
2017-10-22T18:44:40.117Z,91.00
2017-10-22T18:47:09.449Z,91.40
2017-10-22T18:49:40.115Z,91.40
2017-10-22T18:52:11.994Z,91.00
2017-10-22T18:54:42.924Z,91.30
2017-10-22T18:57:12.420Z,90.80
2017-10-22T18:59:44.234Z,90.70
2017-10-22T19:02:14.098Z,90.70
2017-10-22T19:04:43.257Z,90.70
2017-10-22T19:07:12.479Z,90.70
2017-10-22T19:09:40.809Z,91.00
2017-10-22T19:12:10.499Z,90.80
2017-10-22T19:14:41.346Z,90.50
2017-10-22T19:17:11.675Z,90.50
2017-10-22T19:19:44.612Z,90.50
2017-10-22T19:22:14.322Z,90.80
2017-10-22T19:24:45.531Z,90.80
2017-10-22T19:27:17.256Z,90.90
2017-10-22T19:29:47.252Z,90.70
2017-10-22T19:32:15.697Z,91.00
2017-10-22T19:34:44.009Z,91.00
2017-10-22T19:37:12.374Z,91.20
2017-10-22T19:39:41.065Z,90.70
2017-10-22T19:42:09.894Z,90.20
2017-10-22T19:44:38.382Z,90.20
2017-10-22T19:47:06.908Z,90.20
2017-10-22T19:49:35.302Z,90.50
2017-10-22T19:52:03.823Z,90.40
2017-10-22T19:54:32.125Z,90.30
2017-10-22T19:57:00.468Z,90.40
2017-10-22T19:59:29.580Z,90.60
2017-10-22T20:01:58.658Z,90.70
2017-10-22T20:04:27.053Z,90.60
2017-10-22T20:06:56.162Z,90.50
2017-10-22T20:09:25.342Z,90.70
2017-10-22T20:11:53.686Z,90.70
2017-10-22T20:14:22.103Z,90.40
2017-10-22T20:16:50.626Z,90.50
2017-10-22T20:19:19.793Z,90.80
2017-10-22T20:21:48.888Z,91.00
2017-10-22T20:24:17.130Z,91.00
2017-10-22T20:26:45.513Z,90.80
2017-10-22T20:29:13.786Z,91.10
2017-10-22T20:31:42.121Z,90.90
2017-10-22T20:34:11.193Z,91.00
2017-10-22T20:36:39.521Z,91.00
2017-10-22T20:39:08.155Z,91.20
2017-10-22T20:41:36.434Z,91.10
2017-10-22T20:44:04.768Z,91.20
2017-10-22T20:46:33.954Z,91.30
2017-10-22T20:49:02.212Z,91.10
2017-10-22T20:51:31.381Z,90.90
2017-10-22T20:53:59.646Z,90.90
2017-10-22T20:56:27.941Z,90.70
2017-10-22T20:58:56.255Z,90.70
2017-10-22T21:01:26.724Z,90.60
2017-10-22T21:03:57.153Z,90.60
2017-10-22T21:06:26.673Z,91.10
2017-10-22T21:08:56.511Z,90.80
2017-10-22T21:11:25.550Z,90.60
2017-10-22T21:13:53.853Z,90.60
2017-10-22T21:16:22.107Z,90.80
2017-10-22T21:18:50.387Z,90.70
2017-10-22T21:21:18.674Z,90.40
2017-10-22T21:23:47.550Z,90.40
2017-10-22T21:26:15.839Z,90.30
2017-10-22T21:28:44.128Z,90.60
2017-10-22T21:31:12.396Z,90.40
2017-10-22T21:33:40.664Z,90.50
2017-10-22T21:36:08.990Z,90.60
2017-10-22T21:38:38.040Z,90.60
2017-10-22T21:41:06.804Z,90.50
2017-10-22T21:43:35.469Z,90.60
2017-10-22T21:46:04.501Z,90.60
2017-10-22T21:48:33.235Z,90.60
2017-10-22T21:51:01.820Z,90.90
2017-10-22T21:53:30.229Z,90.50
2017-10-22T21:55:58.487Z,90.70
2017-10-22T21:58:27.532Z,90.90
2017-10-22T22:00:55.852Z,91.20
2017-10-22T22:03:24.215Z,91.60
2017-10-22T22:05:53.567Z,91.70
2017-10-22T22:08:21.851Z,91.20
2017-10-22T22:10:50.952Z,90.90
2017-10-22T22:13:19.198Z,91.30
2017-10-22T22:15:48.918Z,91.60
2017-10-22T22:18:17.246Z,91.60
2017-10-22T22:20:46.300Z,91.80
2017-10-22T22:23:14.831Z,91.80
2017-10-22T22:25:43.088Z,92.00
2017-10-22T22:28:11.380Z,91.70
2017-10-22T22:30:40.200Z,91.60
2017-10-22T22:33:08.472Z,91.80
2017-10-22T22:35:36.721Z,91.20
2017-10-22T22:38:05.737Z,91.40
2017-10-22T22:40:34.156Z,91.40
2017-10-22T22:43:02.434Z,91.20
2017-10-22T22:45:30.685Z,91.80
2017-10-22T22:47:59.734Z,91.70
2017-10-22T22:50:28.019Z,91.60
2017-10-22T22:52:56.258Z,91.00
2017-10-22T22:55:25.293Z,91.60
2017-10-22T22:57:54.956Z,91.60
2017-10-22T23:00:23.994Z,91.80
2017-10-22T23:02:53.141Z,91.80
2017-10-22T23:05:22.249Z,91.00
2017-10-22T23:07:51.311Z,91.10
2017-10-22T23:10:20.366Z,91.10
2017-10-22T23:12:48.684Z,91.10
2017-10-22T23:15:16.950Z,91.10
2017-10-22T23:17:45.800Z,91.80
2017-10-22T23:20:14.026Z,91.40
2017-10-22T23:22:42.331Z,91.40
2017-10-22T23:25:11.378Z,91.90
2017-10-22T23:27:39.630Z,91.90
2017-10-22T23:30:07.918Z,92.00
2017-10-22T23:32:36.159Z,92.50
2017-10-22T23:35:05.192Z,91.50
2017-10-22T23:37:33.426Z,92.00
2017-10-22T23:40:02.476Z,92.00
2017-10-22T23:42:30.755Z,92.00
2017-10-22T23:44:59.386Z,92.30
2017-10-22T23:47:29.139Z,91.60
2017-10-22T23:49:57.382Z,91.60
2017-10-22T23:52:26.419Z,91.20
2017-10-22T23:54:54.707Z,91.20
2017-10-22T23:57:22.959Z,91.90
2017-10-22T23:59:51.661Z,92.40
